KTKI

McKinney National Airport

Dallas, Texas, USA
METAR KTKI 140653Z AUTO 36011KT 10SM OVC010 07/06 A2980 RMK AO2 CIG 008V015 SLP098 T00720056
Observed Flight Rules
Dec-14 @ 06:53 UTC (an hour ago) Marginal Visual Flight Rules
Wind Visibility Clouds
360° at 11 knots 10 miles
  • Overcast at 1,000' AGL
Temperatures Readings
Current 7°C / 45°F
Dewpoint 6°C / 43°F
Humidity 93%
Altimeter 29.8" Hg
Pressure 1009.8 hPa
Elevation 179
METAR KTKI 140653Z AUTO 36011KT 10SM OVC010 07/06 A2980 RMK AO2 CIG 008V015 SLP098 T00720056
Observed Flight Rules
Dec-14 @ 06:53 UTC
(an hour ago)
MVFR
Wind Visibility
360° at 11 knots 10 miles
Clouds
  • Overcast at 1,000' AGL
Temperature Dewpoint
7°C / 45°F 6°C / 43°F
Humidity Altimeter Pressure
93% 29.8" Hg 1009.8 hPa